Terminal Aerodrome Forecast
Issued by NWS

Home | Current Version | Previous Version | Text Only | Print | Product List | Glossary On
Versions: 1 2 3 4 5 6 7 8 9 10 11 12 13 14 15 16 17 18 19 20 21 22 23 24 25 26
328
FTUS44 KBMX 281720
TAFEET
TAF
KEET 281720Z 2818/0118 16008G16KT P6SM OVC009
     FM010000 16005KT P6SM OVC015
     FM010800 20008KT 4SM BR OVC007
     FM011500 19009KT P6SM VCSH OVC004=

USA.gov is the U.S. government's official web portal to all federal, state and local government web resources and services.